Pagina principale
METAR-TAF:

METAR-TAF

Aeroporti :

Rutland Southern Vermont Regional Airport

Rutland, Vermont, Stati Uniti

latitudine: 43-32N, longitudine: 072-57W, altezza: 240 m

Osservazione

Il bollettino è stato emesso 5 minuti fa, alle 07:56 UTC
Vento calmo
Temperature 7°C
Umidità 93%
Pressione 1018 hPa
Visibilità: 16.1 km
Cielo sereno

METAR: KRUT 240756Z AUTO 00000KT 10SM CLR 07/06 A3007 RMK AO2 SLP200 T00720056 $

Ora: 04:01 (08:01 UTC)

Previsione

Il bollettino è stato emesso 2 ore e 41 minuti fa, alle 05:20 UTC
Previsione valida dal 24 alle 06 UTC al 25 alle 06 UTC
Vento 5 kt da sud-est
Visibilità: 10 km
Nubi sparse ad un'altezza di 25000 ft
A partire da 24 alle 1400 UTC
Vento 7 kt da nord/nord-ovest
Visibilità: 10 km
Poco nuvoloso ad un'altezza di 25000 ft
A partire da 25 alle 0000 UTC
Vento 5 kt da sud-est
Visibilità: 10 km
Cielo sereno

TAF: KRUT 240520Z 2406/2506 13005KT P6SM SCT250 FM241400 33007KT P6SM FEW250 FM250000 13005KT P6SM SKC

Osservazioni e previsioni meteorologiche di più di 4000 aeroporti (messaggi METAR e TAF).

Le stazioni disponibili sono rappresentate dai dischi gialli e rossi sulla carta.

Puntare il mouse per vedere il nome della stazione.

Clicca sopra per visualizzare le osservazioni e previsioni meteorologiche.

Per cambiare la mappa : fare clic sui pulsanti verdi con una croce nera per ingrandire, il pulsante verde con un trattino per diminuire, o sulla freccia verde per le mappe adiacenti.


METAR-TAF: